Waleska, Georgia
Current Conditions -  °F | °C
As of 10:55 AM on Saturday 20 Dec 2014 (Local Time) from KCNI Reporting Station
Haze Haze  
Wind Chill: 45°   Ceiling: 2300
Heat Index: 45°   Visibility: 5mi
Dew Point: 43°   Wind: 3mph
Humidity: 93%   Direction: 50°NE
Pressure: 30.21"   Gusts: NA
Location:  34.32°N, 84.55°W
Report Text: KCNI 201555Z AUTO 05003KT 5SM BR OVC023 07/06 A3021 RMK AO2
Loading
Personal Weather Stations






























Interactive Weather Map New forecast layout! Learn more

10-Day Weather Forecast

Advertisements
Track Severe Weather on mobile